createdAt,value
2022-09-24T00:02:44.376Z,65.25
2022-09-24T00:05:48.059Z,64.71
2022-09-24T00:08:54.351Z,64.23
2022-09-24T00:11:57.039Z,64.50
2022-09-24T00:14:59.657Z,64.27
2022-09-24T00:18:02.425Z,64.02
2022-09-24T00:21:13.329Z,64.20
2022-09-24T00:24:32.837Z,64.94
2022-09-24T00:27:35.552Z,64.89
2022-09-24T00:30:39.297Z,64.04
2022-09-24T00:33:43.411Z,64.12
2022-09-24T00:36:46.729Z,64.83
2022-09-24T00:39:51.070Z,65.25
2022-09-24T00:42:53.705Z,65.11
2022-09-24T00:46:03.785Z,64.07
2022-09-24T00:49:13.773Z,65.13
2022-09-24T00:52:17.441Z,64.61
2022-09-24T00:55:24.924Z,65.07
2022-09-24T00:58:29.593Z,64.04
2022-09-24T01:01:32.477Z,64.85
2022-09-24T01:04:35.180Z,65.46
2022-09-24T01:07:38.372Z,65.63
2022-09-24T01:10:51.795Z,65.56
2022-09-24T01:14:12.201Z,65.11
2022-09-24T01:17:25.615Z,66.16
2022-09-24T01:20:58.515Z,65.80
2022-09-24T01:24:23.062Z,65.38
2022-09-24T01:27:44.610Z,65.31
2022-09-24T01:30:51.937Z,64.77
2022-09-24T01:33:57.090Z,65.52
2022-09-24T01:37:02.029Z,65.59
2022-09-24T01:40:07.689Z,65.63
2022-09-24T01:43:12.796Z,65.12
2022-09-24T01:46:19.853Z,64.73
2022-09-24T01:49:22.797Z,66.06
2022-09-24T01:52:31.626Z,65.25
2022-09-24T01:55:38.509Z,65.19
2022-09-24T01:58:48.621Z,65.69
2022-09-24T02:02:00.231Z,65.94
2022-09-24T02:05:09.142Z,65.14
2022-09-24T02:08:17.568Z,64.54
2022-09-24T02:11:23.488Z,64.69
2022-09-24T02:14:28.510Z,64.66
2022-09-24T02:17:36.895Z,64.94
2022-09-24T02:20:42.414Z,64.91
2022-09-24T02:23:51.708Z,65.13
2022-09-24T02:26:55.079Z,65.48
2022-09-24T02:29:58.906Z,65.05
2022-09-24T02:33:23.317Z,65.46
2022-09-24T02:36:25.604Z,65.39
2022-09-24T02:39:28.531Z,66.32
2022-09-24T02:42:32.113Z,65.88
2022-09-24T02:45:34.798Z,68.08
2022-09-24T02:48:38.754Z,68.35
2022-09-24T02:51:41.701Z,69.26
2022-09-24T02:54:44.310Z,69.09
2022-09-24T02:57:48.211Z,70.21
2022-09-24T03:00:50.758Z,70.20
2022-09-24T03:03:54.900Z,70.12
2022-09-24T03:06:57.738Z,70.29
2022-09-24T03:10:00.458Z,70.58
2022-09-24T03:13:03.176Z,69.70
2022-09-24T03:16:06.057Z,71.04
2022-09-24T03:19:12.604Z,70.79
2022-09-24T03:22:15.164Z,71.38
2022-09-24T03:25:17.897Z,71.17
2022-09-24T03:28:20.780Z,71.05
2022-09-24T03:31:24.398Z,71.48
2022-09-24T03:34:28.490Z,70.82
2022-09-24T03:37:32.052Z,71.13
2022-09-24T03:40:34.755Z,72.03
2022-09-24T03:43:38.093Z,72.36
2022-09-24T03:46:40.883Z,71.71
2022-09-24T03:49:44.836Z,71.71
2022-09-24T03:52:48.674Z,71.59
2022-09-24T03:55:55.888Z,71.65
2022-09-24T03:58:58.422Z,72.13
2022-09-24T04:02:01.221Z,72.24
2022-09-24T04:05:05.749Z,71.50
2022-09-24T04:08:08.644Z,72.09
2022-09-24T04:11:11.216Z,71.67
2022-09-24T04:14:13.879Z,71.69
2022-09-24T04:17:17.503Z,71.74
2022-09-24T04:20:22.853Z,71.91
2022-09-24T04:23:25.572Z,72.09
2022-09-24T04:26:28.154Z,72.20
2022-09-24T04:29:30.873Z,71.35
2022-09-24T04:32:33.538Z,72.13
2022-09-24T04:35:37.584Z,72.09
2022-09-24T04:38:40.343Z,71.68
2022-09-24T04:41:42.907Z,72.65
2022-09-24T04:44:47.404Z,72.49
2022-09-24T04:47:52.475Z,72.35
2022-09-24T04:50:56.642Z,72.05
2022-09-24T04:53:59.825Z,72.28
2022-09-24T04:57:02.482Z,72.21
2022-09-24T05:00:08.603Z,72.33
2022-09-24T05:03:11.259Z,71.48
2022-09-24T05:06:15.361Z,71.89
2022-09-24T05:09:18.291Z,71.37
2022-09-24T05:12:21.681Z,71.02
2022-09-24T05:15:24.257Z,71.32
2022-09-24T05:18:27.136Z,70.70
2022-09-24T05:21:31.120Z,70.72
2022-09-24T05:24:34.937Z,70.64
2022-09-24T05:27:36.676Z,70.42
2022-09-24T05:30:39.405Z,70.87
2022-09-24T05:33:42.050Z,69.70
2022-09-24T05:36:46.121Z,69.97
2022-09-24T05:39:48.797Z,69.29
2022-09-24T05:42:51.918Z,69.69
2022-09-24T05:45:54.807Z,70.77
2022-09-24T05:48:57.821Z,71.24
2022-09-24T05:52:02.032Z,70.10
2022-09-24T05:55:05.266Z,70.45
2022-09-24T05:58:10.612Z,70.75
2022-09-24T06:01:13.277Z,71.08
2022-09-24T06:04:16.988Z,71.21
2022-09-24T06:07:21.573Z,71.62
2022-09-24T06:10:25.921Z,71.60
2022-09-24T06:13:28.546Z,71.38
2022-09-24T06:16:33.651Z,71.82
2022-09-24T06:19:36.373Z,71.34
2022-09-24T06:22:40.316Z,71.55
2022-09-24T06:25:43.042Z,70.29
2022-09-24T06:28:45.808Z,70.87
2022-09-24T06:31:48.832Z,70.27
2022-09-24T06:34:56.818Z,69.04
2022-09-24T06:38:02.985Z,68.74
2022-09-24T06:41:07.397Z,67.69
2022-09-24T06:44:10.047Z,67.92
2022-09-24T06:47:13.322Z,66.62
2022-09-24T06:50:15.909Z,67.13
2022-09-24T06:53:20.183Z,67.76
2022-09-24T06:56:22.885Z,67.12
2022-09-24T06:59:25.601Z,66.40
2022-09-24T07:02:28.586Z,65.88
2022-09-24T07:05:31.558Z,66.07
2022-09-24T07:08:35.868Z,66.21
2022-09-24T07:11:39.026Z,66.16
2022-09-24T07:14:41.574Z,65.96
2022-09-24T07:17:44.291Z,65.86
2022-09-24T07:20:52.665Z,64.85
2022-09-24T07:23:58.663Z,65.23
2022-09-24T07:27:01.550Z,65.97
2022-09-24T07:30:05.987Z,64.47
2022-09-24T07:33:09.135Z,64.46
2022-09-24T07:36:11.676Z,64.22
2022-09-24T07:39:16.371Z,63.76
2022-09-24T07:42:19.406Z,64.78
2022-09-24T07:45:22.383Z,64.48
2022-09-24T07:48:25.015Z,64.67
2022-09-24T07:51:29.021Z,63.46
2022-09-24T07:54:33.079Z,63.59
2022-09-24T07:57:35.714Z,63.29
2022-09-24T08:00:38.438Z,61.61
2022-09-24T08:03:41.322Z,61.05
2022-09-24T08:06:47.582Z,60.92
2022-09-24T08:09:51.913Z,60.32
2022-09-24T08:12:54.773Z,59.36
2022-09-24T08:15:59.885Z,59.95
2022-09-24T08:19:02.640Z,59.99
2022-09-24T08:22:05.415Z,60.00
2022-09-24T08:25:09.669Z,60.17
2022-09-24T08:28:12.317Z,59.73
2022-09-24T08:31:15.225Z,58.85
2022-09-24T08:34:17.978Z,59.29
2022-09-24T08:37:20.641Z,58.47
2022-09-24T08:40:27.662Z,58.85
2022-09-24T08:43:41.977Z,58.58
2022-09-24T08:47:06.468Z,57.67
2022-09-24T08:50:15.728Z,55.52
2022-09-24T08:53:23.857Z,56.54
2022-09-24T08:56:31.063Z,55.70
2022-09-24T08:59:36.637Z,55.70
2022-09-24T09:02:44.782Z,56.07
2022-09-24T09:05:55.250Z,55.42
2022-09-24T09:09:07.527Z,53.83
2022-09-24T09:12:16.504Z,54.35
2022-09-24T09:15:22.684Z,52.50
2022-09-24T09:18:30.597Z,54.43
2022-09-24T09:21:41.639Z,54.35
2022-09-24T09:24:48.931Z,52.81
2022-09-24T09:27:57.485Z,51.08
2022-09-24T09:31:11.160Z,50.30
2022-09-24T09:34:31.387Z,48.93
2022-09-24T09:37:43.897Z,48.79
2022-09-24T09:40:53.681Z,49.09
2022-09-24T09:44:03.799Z,47.62
2022-09-24T09:47:16.978Z,48.57
2022-09-24T09:50:27.552Z,48.87
2022-09-24T09:53:32.287Z,48.94
2022-09-24T09:56:37.097Z,48.76
2022-09-24T09:59:41.490Z,48.09
2022-09-24T10:02:44.823Z,48.36
2022-09-24T10:05:53.582Z,47.66
2022-09-24T10:09:09.326Z,47.07
2022-09-24T10:12:18.656Z,47.77
2022-09-24T10:15:25.077Z,46.26
2022-09-24T10:18:32.823Z,48.27
2022-09-24T10:21:37.829Z,48.27
2022-09-24T10:24:43.473Z,47.97
2022-09-24T10:27:46.193Z,48.33
2022-09-24T10:30:57.054Z,48.45
2022-09-24T10:34:02.303Z,49.11
2022-09-24T10:37:13.698Z,47.10
2022-09-24T10:40:17.635Z,47.84
2022-09-24T10:43:22.356Z,48.25
2022-09-24T10:46:54.866Z,47.88
2022-09-24T10:50:15.789Z,48.39
2022-09-24T10:53:29.676Z,49.41
2022-09-24T10:56:43.549Z,49.61
2022-09-24T10:59:56.794Z,49.03
2022-09-24T11:03:34.007Z,49.13
2022-09-24T11:06:52.064Z,51.00
2022-09-24T11:10:02.021Z,49.56
2022-09-24T11:13:15.431Z,49.36
2022-09-24T11:16:45.644Z,50.04
2022-09-24T11:20:07.187Z,49.58
2022-09-24T11:23:49.242Z,49.82
2022-09-24T11:27:06.406Z,50.70
2022-09-24T11:30:13.554Z,49.61
2022-09-24T11:33:32.559Z,48.02
2022-09-24T11:36:48.433Z,48.82
2022-09-24T11:40:06.411Z,48.54
2022-09-24T11:43:28.199Z,47.78
2022-09-24T11:46:45.369Z,48.59
2022-09-24T11:50:11.504Z,47.96
2022-09-24T11:53:23.611Z,47.71
2022-09-24T11:56:36.000Z,48.83
2022-09-24T11:59:50.368Z,48.52
2022-09-24T12:02:58.580Z,49.24
2022-09-24T12:06:06.982Z,50.86
2022-09-24T12:09:18.885Z,48.53
2022-09-24T12:12:27.922Z,49.03
2022-09-24T12:15:41.035Z,49.09
2022-09-24T12:18:57.194Z,49.75
2022-09-24T12:22:02.967Z,50.39
2022-09-24T12:25:08.950Z,49.72
2022-09-24T12:28:38.684Z,50.06
2022-09-24T12:32:08.286Z,50.35
2022-09-24T12:35:24.226Z,51.67
2022-09-24T12:38:34.145Z,50.72
2022-09-24T12:41:42.751Z,52.18
2022-09-24T12:44:54.695Z,48.94
2022-09-24T12:48:02.141Z,49.96
2022-09-24T12:51:10.899Z,49.66
2022-09-24T12:54:28.697Z,50.98
2022-09-24T12:57:36.748Z,50.80
2022-09-24T13:00:43.586Z,50.61
2022-09-24T13:03:47.676Z,53.09
2022-09-24T13:06:53.616Z,53.09
2022-09-24T13:09:56.692Z,51.38
2022-09-24T13:13:01.283Z,51.87
2022-09-24T13:16:08.016Z,52.61
2022-09-24T13:19:30.809Z,52.90
2022-09-24T13:22:35.878Z,52.99
2022-09-24T13:25:38.937Z,52.05
2022-09-24T13:29:01.600Z,52.34
2022-09-24T13:32:06.848Z,52.41
2022-09-24T13:35:21.167Z,53.62
2022-09-24T13:38:34.459Z,52.94
2022-09-24T13:41:46.463Z,53.53
2022-09-24T13:44:54.528Z,52.64
2022-09-24T13:48:03.421Z,53.54
2022-09-24T13:51:12.211Z,52.81
2022-09-24T13:54:20.385Z,53.16
2022-09-24T13:57:43.494Z,53.51
2022-09-24T14:00:46.560Z,54.38
2022-09-24T14:04:02.514Z,54.18
2022-09-24T14:07:05.425Z,53.17
2022-09-24T14:10:14.219Z,54.30
2022-09-24T14:13:21.778Z,54.73
2022-09-24T14:16:26.309Z,53.03
2022-09-24T14:19:34.362Z,53.90
2022-09-24T14:22:40.960Z,53.13
2022-09-24T14:25:44.204Z,52.87
2022-09-24T14:28:47.298Z,54.43
2022-09-24T14:31:55.721Z,55.21
2022-09-24T14:35:02.020Z,53.54
2022-09-24T14:38:13.050Z,53.29
2022-09-24T14:41:21.759Z,54.71
2022-09-24T14:44:27.546Z,55.03
2022-09-24T14:47:35.328Z,55.25
2022-09-24T14:50:41.944Z,55.67
2022-09-24T14:53:45.018Z,54.29
2022-09-24T14:56:52.125Z,55.49
2022-09-24T14:59:55.070Z,56.43
2022-09-24T15:03:01.556Z,56.79
2022-09-24T15:06:19.147Z,58.34
2022-09-24T15:09:26.781Z,58.71
2022-09-24T15:12:32.758Z,58.90
2022-09-24T15:15:36.587Z,58.80
2022-09-24T15:18:39.627Z,59.20
2022-09-24T15:21:44.096Z,60.39
2022-09-24T15:24:50.132Z,60.76
2022-09-24T15:27:54.779Z,61.38
2022-09-24T15:30:57.948Z,60.71
2022-09-24T15:34:00.956Z,61.31
2022-09-24T15:37:05.143Z,62.25
2022-09-24T15:40:13.059Z,62.49
2022-09-24T15:43:21.996Z,62.44
2022-09-24T15:46:29.905Z,62.96
2022-09-24T15:49:37.522Z,62.61
2022-09-24T15:52:48.015Z,62.37
2022-09-24T15:55:56.143Z,62.43
2022-09-24T15:58:58.952Z,62.34
2022-09-24T16:02:05.090Z,62.87
2022-09-24T16:05:12.438Z,62.20
2022-09-24T16:08:20.617Z,62.40
2022-09-24T16:11:23.583Z,62.69
2022-09-24T16:14:26.767Z,63.05
2022-09-24T16:17:29.829Z,63.34
2022-09-24T16:20:35.279Z,64.76
2022-09-24T16:23:48.190Z,64.11
2022-09-24T16:26:51.369Z,64.43
2022-09-24T16:29:54.572Z,65.51
2022-09-24T16:33:00.567Z,66.05
2022-09-24T16:36:10.137Z,66.77
2022-09-24T16:39:15.740Z,66.63
2022-09-24T16:42:20.630Z,68.06
2022-09-24T16:45:23.923Z,68.55
2022-09-24T16:48:27.055Z,69.01
2022-09-24T16:51:30.114Z,69.68
2022-09-24T16:54:35.858Z,69.63
2022-09-24T16:57:39.264Z,70.40
2022-09-24T17:00:43.744Z,70.34
2022-09-24T17:03:51.935Z,70.38
2022-09-24T17:06:55.224Z,69.77
2022-09-24T17:10:16.126Z,71.23
2022-09-24T17:13:19.713Z,70.23
2022-09-24T17:16:23.759Z,70.86
2022-09-24T17:19:32.509Z,70.28
2022-09-24T17:22:35.337Z,72.04
2022-09-24T17:25:41.595Z,72.57
2022-09-24T17:32:05.610Z,71.95
2022-09-24T17:35:09.197Z,70.72
2022-09-24T17:38:12.026Z,71.36
2022-09-24T17:41:20.013Z,71.53
2022-09-24T17:44:22.963Z,71.99
2022-09-24T17:47:46.460Z,72.52
2022-09-24T17:50:55.153Z,72.82
2022-09-24T17:53:58.423Z,72.39
2022-09-24T17:57:11.553Z,72.10
2022-09-24T18:00:17.398Z,72.38
2022-09-24T18:03:23.672Z,72.62
2022-09-24T18:06:32.047Z,72.53
2022-09-24T18:09:35.941Z,73.49
2022-09-24T18:12:42.691Z,74.01
2022-09-24T18:15:45.938Z,73.49
2022-09-24T18:18:50.204Z,73.32
2022-09-24T18:21:56.716Z,73.12
2022-09-24T18:25:00.938Z,73.01
2022-09-24T18:28:09.485Z,73.68
2022-09-24T18:31:13.319Z,73.93
2022-09-24T18:34:17.236Z,73.64
2022-09-24T18:37:20.160Z,73.65
2022-09-24T18:40:23.304Z,74.12
2022-09-24T18:43:27.666Z,73.33
2022-09-24T18:46:35.289Z,73.59
2022-09-24T18:49:38.116Z,72.32
2022-09-24T18:52:41.236Z,73.18
2022-09-24T18:55:45.024Z,73.70
2022-09-24T18:58:49.528Z,74.14
2022-09-24T19:01:52.430Z,73.90
2022-09-24T19:04:57.930Z,73.40
2022-09-24T19:08:00.921Z,73.32
2022-09-24T19:11:07.711Z,73.64
2022-09-24T19:14:14.936Z,71.80
2022-09-24T19:17:18.102Z,71.99
2022-09-24T19:20:21.162Z,72.22
2022-09-24T19:23:24.240Z,71.79
2022-09-24T19:26:29.706Z,71.32
2022-09-24T19:29:35.569Z,72.18
2022-09-24T19:32:43.479Z,72.17
2022-09-24T19:36:02.240Z,72.31
2022-09-24T19:39:07.255Z,72.89
2022-09-24T19:42:10.162Z,73.44
2022-09-24T19:45:14.892Z,72.25
2022-09-24T19:48:23.702Z,71.32
2022-09-24T19:51:28.225Z,71.70
2022-09-24T19:54:31.322Z,70.90
2022-09-24T19:57:34.986Z,70.51
2022-09-24T20:00:42.636Z,69.75
2022-09-24T20:03:45.933Z,70.44
2022-09-24T20:06:48.906Z,71.16
2022-09-24T20:09:51.815Z,71.54
2022-09-24T20:12:54.993Z,71.37
2022-09-24T20:16:01.071Z,71.40
2022-09-24T20:19:05.386Z,72.04
2022-09-24T20:22:16.574Z,72.47
2022-09-24T20:25:44.442Z,72.89
2022-09-24T20:28:48.541Z,73.09
2022-09-24T20:31:55.559Z,73.66
2022-09-24T20:34:59.254Z,74.24
2022-09-24T20:38:03.947Z,73.66
2022-09-24T20:41:40.285Z,74.47
2022-09-24T20:44:49.343Z,73.95
2022-09-24T20:47:59.693Z,73.55
2022-09-24T20:51:10.530Z,74.93
2022-09-24T20:54:19.983Z,74.50
2022-09-24T20:57:26.233Z,74.56
2022-09-24T21:00:50.870Z,75.38
2022-09-24T21:04:08.839Z,75.07
2022-09-24T21:07:29.320Z,74.64
2022-09-24T21:10:32.773Z,74.24
2022-09-24T21:13:40.610Z,74.39
2022-09-24T21:16:46.973Z,74.21
2022-09-24T21:20:12.180Z,74.46
2022-09-24T21:23:38.278Z,74.55
2022-09-24T21:30:36.126Z,74.09
2022-09-24T21:34:27.408Z,74.62
2022-09-24T21:37:53.441Z,74.01
2022-09-24T21:41:05.291Z,73.92
2022-09-24T21:44:52.217Z,74.33
2022-09-24T21:48:01.262Z,74.19
2022-09-24T21:51:21.350Z,75.36
2022-09-24T21:54:30.576Z,74.42
2022-09-24T21:57:41.516Z,74.44
2022-09-24T22:00:44.380Z,74.93
2022-09-24T22:03:48.254Z,75.98
2022-09-24T22:06:57.923Z,73.56
2022-09-24T22:10:06.983Z,75.30
2022-09-24T22:13:17.291Z,75.61
2022-09-24T22:16:20.847Z,75.25
2022-09-24T22:19:24.225Z,75.18
2022-09-24T22:22:32.495Z,75.19
2022-09-24T22:25:37.169Z,76.00
2022-09-24T22:28:40.693Z,75.29
2022-09-24T22:31:44.025Z,75.32
2022-09-24T22:35:04.743Z,75.09
2022-09-24T22:38:07.985Z,75.02
2022-09-24T22:41:18.931Z,75.29
2022-09-24T22:44:21.942Z,75.49
2022-09-24T22:47:34.957Z,75.41
2022-09-24T22:50:38.064Z,75.78
2022-09-24T22:53:51.431Z,75.87
2022-09-24T22:56:58.833Z,75.79
2022-09-24T23:00:02.870Z,75.53
2022-09-24T23:03:08.398Z,75.30
2022-09-24T23:06:33.913Z,76.04
2022-09-24T23:13:31.325Z,76.00
2022-09-24T23:24:18.477Z,76.77
2022-09-24T23:27:42.509Z,76.80
2022-09-24T23:31:17.851Z,77.30
2022-09-24T23:34:22.329Z,77.41
2022-09-24T23:37:28.575Z,77.00
2022-09-24T23:40:33.812Z,77.27
2022-09-24T23:43:47.516Z,77.32
2022-09-24T23:55:13.135Z,77.61
2022-09-24T23:58:23.167Z,77.29
